Terminal Aerodrome Forecast
Issued by NWS Charleston, WV

Current Version | Previous Version | Graphics & Text | Print | Product List | Glossary On
Versions: 1 2 3 4 5 6 7 8 9 10 11 12 13 14 15 16 17 18 19 20 21 22 23 24 25 26 27
000
FTUS41 KRLX 050546
TAFEKN
TAF
KEKN 050546Z 0506/0606 00000KT 6SM BR BKN040
     FM050800 00000KT 3SM BR SCT001 SCT040
     FM051200 00000KT 6SM BR SCT050
     FM051300 00000KT P6SM SCT050
     FM051700 28006KT P6SM SCT050
     FM060000 00000KT P6SM BKN250
     FM060500 00000KT 5SM BR BKN250=

USA.gov is the U.S. government's official web portal to all federal, state and local government web resources and services.